Time;durP1;ratioP1;P1;durP2;ratioP2;P2;SDS_P1;SDS_P2;PMS_P1;PMS_P2;Temp;Humidity;BMP_temperature;BMP_pressure;BME280_temperature;BME280_humidity;BME280_pressure;Samples;Min_cycle;Max_cycle;Signal;HPM_P1;HPM_P2
2022/05/27 00:03:19;;;;;;;;;;;;;;;16.52;74.49;100352.25;10354257;28;19925;-67
2022/05/27 00:08:22;;;;;;;;;;;;;;;16.64;74.43;100341.34;10328126;28;20327;-71
2022/05/27 00:13:25;;;;;;;;;;;;;;;16.57;75.16;100331.97;10327838;28;20385;-74
2022/05/27 00:18:30;;;;;;;;;;;;;;;16.62;74.71;100344.00;10327732;28;19936;-65
2022/05/27 00:23:33;;;;;;;;;;;;;;;16.66;74.31;100339.53;10327897;28;20281;-68
2022/05/27 00:28:37;;;;;;;;;;;;;;;16.65;74.18;100330.78;10397096;28;19925;-67
2022/05/27 00:33:41;;;;;;;;;;;;;;;16.61;74.61;100318.72;10408784;28;19935;-66
2022/05/27 00:38:45;;;;;;;;;;;;;;;16.54;75.58;100311.13;10411443;28;20019;-68
2022/05/27 00:43:48;;;;;;;;;;;;;;;16.49;75.93;100315.66;10416063;28;19929;-68
2022/05/27 00:48:54;;;;;;;;;;;;;;;16.61;75.15;100323.09;10418622;28;19936;-68
2022/05/27 00:53:58;;;;;;;;;;;;;;;16.60;75.08;100305.69;10418376;28;19925;-66
2022/05/27 00:59:03;;;;;;;;;;;;;;;16.38;76.44;100299.41;10418593;28;19925;-70
2022/05/27 01:04:08;;;;;;;;;;;;;;;16.25;76.44;100311.25;10417881;28;19935;-67
2022/05/27 01:09:12;;;;;;;;;;;;;;;16.31;75.75;100309.25;10418128;28;19925;-68
2022/05/27 01:14:20;;;;;;;;;;;;;;;16.23;75.94;100305.19;10418121;28;19925;-69
2022/05/27 01:25:06;;;;;;;;;;;;;;;16.44;74.85;100299.22;10417561;28;19943;-68
2022/05/27 01:30:20;;;;;;;;;;;;;;;16.36;75.08;100294.25;10417781;28;20070;-65
2022/05/27 01:35:31;;;;;;;;;;;;;;;16.20;75.26;100291.28;10417297;28;19932;-65
2022/05/27 01:40:40;;;;;;;;;;;;;;;16.29;75.23;100274.41;10417007;28;19935;-65
2022/05/27 01:45:49;;;;;;;;;;;;;;;16.28;74.72;100250.88;10416946;28;20368;-69
2022/05/27 01:50:55;;;;;;;;;;;;;;;16.25;74.61;100240.53;10416263;28;19925;-65
2022/05/27 01:56:02;;;;;;;;;;;;;;;16.16;74.99;100224.22;10416815;28;19925;-68
2022/05/27 02:01:10;;;;;;;;;;;;;;;16.15;75.12;100229.53;10416211;28;20015;-67
2022/05/27 02:06:15;;;;;;;;;;;;;;;16.09;75.14;100219.25;10416247;28;20311;-64
2022/05/27 02:11:20;;;;;;;;;;;;;;;16.23;74.66;100224.88;10416160;28;20268;-67
2022/05/27 02:16:28;;;;;;;;;;;;;;;16.16;75.72;100232.09;10415923;28;20356;-69
2022/05/27 02:21:33;;;;;;;;;;;;;;;16.07;76.68;100224.53;10416241;28;19936;-64
2022/05/27 02:26:39;;;;;;;;;;;;;;;16.10;78.37;100205.28;10415757;28;19925;-67
2022/05/27 02:31:46;;;;;;;;;;;;;;;16.07;78.39;100215.81;10344619;28;20351;-67
2022/05/27 02:36:52;;;;;;;;;;;;;;;16.00;79.53;100211.72;10334402;28;19926;-66
2022/05/27 02:41:59;;;;;;;;;;;;;;;16.01;79.86;100201.19;10341797;28;19926;-68
2022/05/27 02:47:08;;;;;;;;;;;;;;;15.95;80.46;100195.31;10333575;28;20065;-65
2022/05/27 02:52:17;;;;;;;;;;;;;;;15.94;80.79;100189.25;10333400;28;19936;-69
2022/05/27 02:57:22;;;;;;;;;;;;;;;15.98;81.29;100190.81;10333548;28;20254;-68
2022/05/27 03:02:27;;;;;;;;;;;;;;;15.90;82.21;100194.63;10332101;28;19926;-71
2022/05/27 03:07:35;;;;;;;;;;;;;;;15.86;82.62;100182.53;10333134;28;19936;-71
2022/05/27 03:12:44;;;;;;;;;;;;;;;15.86;82.73;100179.91;10332971;28;19925;-66
2022/05/27 03:17:57;;;;;;;;;;;;;;;15.85;83.66;100172.97;10332748;28;19930;-67
2022/05/27 03:23:07;;;;;;;;;;;;;;;15.83;84.47;100167.81;10332730;28;20001;-65
2022/05/27 03:28:13;;;;;;;;;;;;;;;15.81;84.50;100155.66;10332535;28;19975;-66
2022/05/27 03:33:23;;;;;;;;;;;;;;;15.86;84.04;100149.38;10332151;28;19926;-69
2022/05/27 03:38:27;;;;;;;;;;;;;;;15.72;84.38;100146.38;10332223;28;19926;-65
2022/05/27 03:43:32;;;;;;;;;;;;;;;15.74;84.69;100147.19;10332393;28;19926;-67
2022/05/27 03:48:37;;;;;;;;;;;;;;;15.74;83.88;100128.00;10332904;28;19926;-66
2022/05/27 03:59:07;;;;;;;;;;;;;;;15.60;86.53;100127.63;10331680;28;19925;-66
2022/05/27 04:04:12;;;;;;;;;;;;;;;15.61;87.92;100127.59;10331102;28;19926;-70
2022/05/27 04:09:16;;;;;;;;;;;;;;;15.23;94.58;100125.34;10331405;28;19926;-67
2022/05/27 04:14:20;;;;;;;;;;;;;;;14.69;100.00;100132.31;10330738;28;20261;-66
2022/05/27 04:19:24;;;;;;;;;;;;;;;14.90;100.00;100121.19;10330807;28;20224;-69
2022/05/27 04:24:27;;;;;;;;;;;;;;;14.78;100.00;100121.59;10330655;28;20343;-68
2022/05/27 04:29:30;;;;;;;;;;;;;;;14.90;100.00;100124.69;10330763;28;19932;-67
2022/05/27 04:34:35;;;;;;;;;;;;;;;14.64;100.00;100116.78;10330467;28;19936;-66
2022/05/27 04:39:38;;;;;;;;;;;;;;;14.70;100.00;100118.38;10330385;28;20009;-67
2022/05/27 04:44:41;;;;;;;;;;;;;;;14.80;100.00;100114.56;10330491;28;20384;-68
2022/05/27 04:49:53;;;;;;;;;;;;;;;14.78;100.00;100117.22;10330265;28;19925;-67
2022/05/27 04:54:58;;;;;;;;;;;;;;;14.69;100.00;100114.03;10330556;28;19965;-64
2022/05/27 05:00:04;;;;;;;;;;;;;;;14.68;100.00;100128.00;10329693;28;19929;-68
2022/05/27 05:05:09;;;;;;;;;;;;;;;14.75;100.00;100112.06;10329962;28;19936;-69
2022/05/27 05:10:14;;;;;;;;;;;;;;;14.90;100.00;100119.44;10329835;28;19938;-67
2022/05/27 05:15:18;;;;;;;;;;;;;;;14.86;100.00;100114.34;10329410;28;19926;-67
2022/05/27 05:20:25;;;;;;;;;;;;;;;14.59;100.00;100102.16;10329685;28;19975;-66
2022/05/27 05:25:28;;;;;;;;;;;;;;;14.61;100.00;100106.44;10331603;28;19936;-67
2022/05/27 05:30:31;;;;;;;;;;;;;;;14.54;100.00;100101.44;10335941;28;19932;-70
2022/05/27 05:35:36;;;;;;;;;;;;;;;14.54;100.00;100091.00;10336025;28;19966;-67
2022/05/27 05:40:39;;;;;;;;;;;;;;;14.54;100.00;100085.75;10335944;28;20291;-70
2022/05/27 05:45:45;;;;;;;;;;;;;;;14.51;100.00;100084.09;10335380;28;19926;-67
2022/05/27 05:50:49;;;;;;;;;;;;;;;14.54;100.00;100085.75;10335110;28;19936;-70
2022/05/27 05:55:52;;;;;;;;;;;;;;;14.56;100.00;100089.19;10355861;28;19954;-64
2022/05/27 06:00:55;;;;;;;;;;;;;;;14.53;100.00;100078.84;10361978;28;20007;-68
2022/05/27 06:06:00;;;;;;;;;;;;;;;14.58;100.00;100067.34;10375785;28;20028;-70
2022/05/27 06:11:07;;;;;;;;;;;;;;;14.54;100.00;100062.25;10375619;28;19929;-66
2022/05/27 06:16:10;;;;;;;;;;;;;;;14.56;100.00;100057.84;10375204;28;19925;-66
2022/05/27 06:21:15;;;;;;;;;;;;;;;14.69;100.00;100043.50;10375079;28;19935;-64
2022/05/27 06:26:18;;;;;;;;;;;;;;;14.82;100.00;100035.19;10374682;28;19926;-67
2022/05/27 06:36:44;;;;;;;;;;;;;;;14.91;100.00;100026.22;10374373;28;19934;-67
2022/05/27 06:41:47;;;;;;;;;;;;;;;14.93;100.00;100032.25;10374432;28;20402;-68
2022/05/27 06:46:52;;;;;;;;;;;;;;;15.05;100.00;100024.00;10374332;28;19926;-67
2022/05/27 06:51:56;;;;;;;;;;;;;;;15.19;100.00;100018.28;10027196;28;10000350;-68
2022/05/27 06:56:59;;;;;;;;;;;;;;;15.21;100.00;100012.13;10370749;28;19926;-67
2022/05/27 07:02:03;;;;;;;;;;;;;;;15.32;100.00;100002.16;10370565;28;19935;-66
2022/05/27 07:07:08;;;;;;;;;;;;;;;15.49;100.00;99991.13;10370331;28;20392;-68
2022/05/27 07:12:12;;;;;;;;;;;;;;;15.77;100.00;99992.66;10370024;28;19929;-68
2022/05/27 07:17:15;;;;;;;;;;;;;;;16.03;100.00;99987.31;10370149;28;20022;-70
2022/05/27 07:22:20;;;;;;;;;;;;;;;15.99;100.00;99980.50;10369800;28;19936;-67
2022/05/27 07:27:23;;;;;;;;;;;;;;;15.95;100.00;99978.91;10368934;28;19929;-68
2022/05/27 07:32:26;;;;;;;;;;;;;;;15.96;100.00;99985.00;10368772;28;20249;-68
2022/05/27 07:37:30;;;;;;;;;;;;;;;16.00;100.00;99979.56;10368339;28;19939;-70
2022/05/27 07:42:33;;;;;;;;;;;;;;;15.99;100.00;99977.03;10368590;28;19925;-66
2022/05/27 07:47:37;;;;;;;;;;;;;;;15.85;100.00;99982.78;10367718;28;20261;-66
2022/05/27 07:52:42;;;;;;;;;;;;;;;15.76;100.00;99970.03;10367704;28;19934;-66
2022/05/27 07:57:46;;;;;;;;;;;;;;;15.88;100.00;99966.09;10368288;28;19925;-70
2022/05/27 08:02:50;;;;;;;;;;;;;;;16.02;100.00;99962.06;10367296;28;19925;-67
2022/05/27 08:07:54;;;;;;;;;;;;;;;15.98;100.00;99963.06;10367717;28;19925;-71
2022/05/27 08:12:58;;;;;;;;;;;;;;;15.88;100.00;99947.78;10365805;28;19929;-69
2022/05/27 08:18:01;;;;;;;;;;;;;;;15.92;100.00;99939.75;10370130;28;20347;-65
2022/05/27 08:23:08;;;;;;;;;;;;;;;15.98;100.00;99931.66;10370426;28;19925;-66
2022/05/27 08:28:11;;;;;;;;;;;;;;;16.09;100.00;99929.50;10368376;28;19929;-69
2022/05/27 08:33:14;;;;;;;;;;;;;;;16.03;100.00;99947.22;10371198;28;19935;-67
2022/05/27 08:38:21;;;;;;;;;;;;;;;15.89;100.00;99952.94;10366608;28;19936;-69
2022/05/27 08:43:29;;;;;;;;;;;;;;;15.83;100.00;99940.09;10370908;28;19926;-68
2022/05/27 08:48:35;;;;;;;;;;;;;;;15.96;100.00;99949.19;10370975;28;19925;-66
2022/05/27 08:54:04;;;;;;;;;;;;;;;15.91;100.00;99955.53;10370626;28;19925;-69
2022/05/27 08:59:27;;;;;;;;;;;;;;;15.89;100.00;99963.41;10331762;28;20028;-71
2022/05/27 09:04:34;;;;;;;;;;;;;;;15.96;100.00;99959.66;10337061;28;20468;-70
2022/05/27 09:09:38;;;;;;;;;;;;;;;16.04;100.00;99962.84;10336728;28;20405;-70
2022/05/27 09:14:45;;;;;;;;;;;;;;;16.18;100.00;99964.94;10336581;28;19936;-67
2022/05/27 09:19:50;;;;;;;;;;;;;;;16.37;100.00;99963.28;10336530;28;20339;-69
2022/05/27 09:24:59;;;;;;;;;;;;;;;16.19;100.00;99970.09;10337013;28;19968;-71
2022/05/27 09:30:04;;;;;;;;;;;;;;;16.18;100.00;99957.06;10336286;28;19926;-66
2022/05/27 09:35:10;;;;;;;;;;;;;;;16.18;100.00;99957.06;10335047;28;20020;-65
2022/05/27 09:40:38;;;;;;;;;;;;;;;16.32;100.00;99961.75;10335670;28;19933;-68
2022/05/27 09:45:43;;;;;;;;;;;;;;;16.42;98.41;99961.34;10335497;28;19926;-67
2022/05/27 09:50:47;;;;;;;;;;;;;;;16.46;95.78;99975.16;10335542;28;19925;-67
2022/05/27 09:55:54;;;;;;;;;;;;;;;16.44;95.16;99980.47;10335087;28;20247;-64
2022/05/27 10:00:57;;;;;;;;;;;;;;;16.54;92.80;99966.13;10335342;28;19937;-70
2022/05/27 10:06:02;;;;;;;;;;;;;;;16.54;93.45;99975.72;10334873;28;19926;-67
2022/05/27 10:11:12;;;;;;;;;;;;;;;16.53;90.11;99984.53;10334174;28;20353;-67
2022/05/27 10:16:22;;;;;;;;;;;;;;;16.43;89.28;99975.28;10331807;28;19926;-65
2022/05/27 10:21:25;;;;;;;;;;;;;;;16.16;90.46;99983.31;10331408;28;19926;-65
2022/05/27 10:26:31;;;;;;;;;;;;;;;16.07;89.49;99954.88;10331302;28;19930;-71
2022/05/27 10:31:35;;;;;;;;;;;;;;;15.84;94.37;99943.59;10330810;28;20449;-68
2022/05/27 10:36:47;;;;;;;;;;;;;;;15.82;92.53;99987.28;10445314;28;19952;-68
2022/05/27 10:41:56;;;;;;;;;;;;;;;15.60;94.19;99957.59;10584895;28;19928;-64
2022/05/27 10:47:00;;;;;;;;;;;;;;;15.46;88.63;99910.16;10584720;28;19928;-67
2022/05/27 10:52:09;;;;;;;;;;;;;;;15.40;84.20;99920.81;10584660;28;20014;-65
2022/05/27 11:02:54;;;;;;;;;;;;;;;15.48;77.71;99862.09;10584140;28;20360;-66
2022/05/27 11:08:06;;;;;;;;;;;;;;;15.65;74.03;99866.69;10583827;28;20328;-65
2022/05/27 11:18:54;;;;;;;;;;;;;;;15.97;66.04;99855.81;10583629;28;19953;-65
2022/05/27 11:24:04;;;;;;;;;;;;;;;16.06;64.73;99886.88;10582447;28;19923;-67
2022/05/27 11:29:31;;;;;;;;;;;;;;;16.15;63.08;99862.94;10582215;28;19947;-66
2022/05/27 11:34:42;;;;;;;;;;;;;;;16.34;61.32;99852.56;10218921;28;10000662;-67
2022/05/27 11:39:55;;;;;;;;;;;;;;;16.39;63.43;99874.16;10410010;28;20342;-66
2022/05/27 11:45:05;;;;;;;;;;;;;;;16.44;63.14;99859.97;10409993;28;20372;-68
2022/05/27 11:50:15;;;;;;;;;;;;;;;16.49;61.15;99867.66;10409688;28;20257;-66
2022/05/27 11:55:23;;;;;;;;;;;;;;;16.44;61.92;99887.91;10409607;28;20338;-67
2022/05/27 12:00:29;;;;;;;;;;;;;;;16.69;61.64;99860.66;10409340;28;19925;-68
2022/05/27 12:05:37;;;;;;;;;;;;;;;16.61;61.68;99868.00;10409138;28;20231;-68
2022/05/27 12:10:43;;;;;;;;;;;;;;;16.46;62.37;99841.56;10409476;28;19925;-67
2022/05/27 12:15:48;;;;;;;;;;;;;;;16.50;62.46;99832.69;10409042;28;20359;-71
2022/05/27 12:20:53;;;;;;;;;;;;;;;16.44;63.00;99832.91;10409191;28;19960;-65
2022/05/27 12:25:59;;;;;;;;;;;;;;;16.35;62.66;99855.09;10378282;28;19982;-66
2022/05/27 12:31:02;;;;;;;;;;;;;;;16.43;63.89;99828.59;10360657;28;19926;-67
2022/05/27 12:36:08;;;;;;;;;;;;;;;16.15;65.19;99848.06;10367118;28;19936;-67
2022/05/27 12:41:16;;;;;;;;;;;;;;;16.08;66.34;99853.63;10363981;28;19929;-65
2022/05/27 12:46:27;;;;;;;;;;;;;;;16.25;66.57;99843.31;10343707;28;20408;-67
2022/05/27 12:51:37;;;;;;;;;;;;;;;16.29;66.74;99833.56;10359709;28;20020;-67
2022/05/27 13:02:27;;;;;;;;;;;;;;;16.42;67.49;99805.91;10336791;28;20270;-67
2022/05/27 13:07:44;;;;;;;;;;;;;;;16.69;67.05;99812.63;10385413;28;19940;-64
2022/05/27 13:12:50;;;;;;;;;;;;;;;16.58;67.91;99807.00;10373841;28;19932;-68
2022/05/27 13:18:01;;;;;;;;;;;;;;;16.70;68.41;99794.25;10370523;28;20247;-67
2022/05/27 13:23:11;;;;;;;;;;;;;;;16.72;67.53;99802.84;10343620;28;19929;-66
2022/05/27 13:28:34;;;;;;;;;;;;;;;16.68;68.12;99789.97;10364970;28;19961;-67
2022/05/27 13:33:39;;;;;;;;;;;;;;;16.73;68.20;99782.75;10331836;28;19990;-68
2022/05/27 13:38:46;;;;;;;;;;;;;;;17.85;65.50;99763.47;10331543;28;19941;-69
2022/05/27 13:43:53;;;;;;;;;;;;;;;17.49;66.73;99790.63;10351718;28;19925;-69
2022/05/27 13:48:58;;;;;;;;;;;;;;;17.70;67.54;99779.97;10364949;28;20036;-69
2022/05/27 13:54:13;;;;;;;;;;;;;;;17.68;67.17;99823.81;10333792;28;19948;-73
2022/05/27 13:59:21;;;;;;;;;;;;;;;17.34;68.12;99813.16;10333706;28;20013;-69
2022/05/27 14:04:28;;;;;;;;;;;;;;;17.25;67.80;99797.84;10333309;28;19930;-68
2022/05/27 14:09:34;;;;;;;;;;;;;;;17.81;67.04;99788.16;10333277;28;19940;-68
2022/05/27 14:14:39;;;;;;;;;;;;;;;18.87;62.89;99748.56;10333047;28;20262;-68
2022/05/27 14:19:42;;;;;;;;;;;;;;;19.24;61.45;99732.47;10332943;28;20212;-68
2022/05/27 14:24:47;;;;;;;;;;;;;;;19.57;60.36;99712.19;10364993;28;20335;-67
2022/05/27 14:29:53;;;;;;;;;;;;;;;19.98;59.28;99717.72;10332588;28;19937;-68
2022/05/27 14:34:58;;;;;;;;;;;;;;;19.58;59.84;99739.38;10332391;28;19937;-65
2022/05/27 14:40:03;;;;;;;;;;;;;;;19.94;59.55;99727.56;10332294;28;19978;-69
2022/05/27 14:45:11;;;;;;;;;;;;;;;20.02;57.28;99753.47;10332127;28;19926;-66
2022/05/27 14:50:18;;;;;;;;;;;;;;;19.82;58.82;99744.09;10331890;28;20435;-70
2022/05/27 14:55:24;;;;;;;;;;;;;;;19.75;58.54;99748.00;10331895;28;20362;-65
2022/05/27 15:00:29;;;;;;;;;;;;;;;19.03;60.35;99766.09;10331659;28;19926;-69
2022/05/27 15:05:35;;;;;;;;;;;;;;;18.73;60.71;99754.56;10331510;28;19936;-72
2022/05/27 15:10:40;;;;;;;;;;;;;;;18.11;63.00;99765.66;10331440;28;20248;-71
2022/05/27 15:15:43;;;;;;;;;;;;;;;18.00;64.16;99767.94;10331143;28;19937;-68
2022/05/27 15:20:48;;;;;;;;;;;;;;;17.78;65.24;99780.44;10331180;28;19926;-70
2022/05/27 15:33:05;;;;;;;;;;;;;;;17.44;65.35;99772.44;10330929;28;20244;-69
2022/05/27 15:36:41;;;;;;;;;;;;;;;17.18;65.71;99778.06;10330540;28;20259;-69
2022/05/27 15:41:46;;;;;;;;;;;;;;;17.04;64.13;99783.06;10330603;28;19940;-67
2022/05/27 15:46:49;;;;;;;;;;;;;;;16.84;67.93;99772.66;10330404;28;19926;-66
2022/05/27 15:51:52;;;;;;;;;;;;;;;16.70;68.91;99782.88;10334246;28;19925;-68
2022/05/27 15:56:56;;;;;;;;;;;;;;;17.07;69.28;99778.53;10368204;28;19965;-67
2022/05/27 16:01:59;;;;;;;;;;;;;;;17.53;63.97;99760.69;10370164;28;20339;-71
2022/05/27 16:07:03;;;;;;;;;;;;;;;17.71;63.33;99773.78;10370273;28;19933;-70
2022/05/27 16:12:08;;;;;;;;;;;;;;;17.86;62.27;99770.41;10369431;28;19933;-70
2022/05/27 16:22:34;;;;;;;;;;;;;;;17.28;63.20;99763.59;10357892;28;19933;-68
2022/05/27 16:27:39;;;;;;;;;;;;;;;17.26;63.27;99766.28;10329199;28;20254;-71
2022/05/27 16:32:42;;;;;;;;;;;;;;;17.21;64.42;99775.28;10329184;28;19936;-67
2022/05/27 16:37:45;;;;;;;;;;;;;;;17.48;59.90;99775.81;10328772;28;19930;-66
2022/05/27 16:42:50;;;;;;;;;;;;;;;17.62;58.10;99779.47;10328859;28;19936;-68
2022/05/27 16:47:54;;;;;;;;;;;;;;;17.29;58.32;99783.66;10329413;28;19926;-69
2022/05/27 16:52:57;;;;;;;;;;;;;;;17.00;55.96;99805.09;10328573;28;19952;-68
2022/05/27 16:58:01;;;;;;;;;;;;;;;16.80;55.59;99794.66;10328419;28;19936;-69
2022/05/27 17:03:05;;;;;;;;;;;;;;;16.68;54.38;99808.31;10328060;28;19926;-67
2022/05/27 17:08:08;;;;;;;;;;;;;;;16.70;54.16;99811.72;10345060;28;19926;-65
2022/05/27 17:13:12;;;;;;;;;;;;;;;16.64;54.86;99825.06;10370428;28;19966;-69
2022/05/27 17:18:16;;;;;;;;;;;;;;;16.41;54.26;99833.03;10368639;28;19933;-67
2022/05/27 17:23:19;;;;;;;;;;;;;;;16.31;53.64;99836.97;10373275;28;19948;-70
2022/05/27 17:28:23;;;;;;;;;;;;;;;16.19;55.13;99839.16;10374971;28;19932;-66
2022/05/27 17:33:26;;;;;;;;;;;;;;;16.08;54.98;99841.38;10374732;28;19925;-68
2022/05/27 17:38:30;;;;;;;;;;;;;;;16.18;55.01;99852.34;10374636;28;20257;-69
2022/05/27 17:43:35;;;;;;;;;;;;;;;16.14;55.68;99850.75;10374463;28;20261;-67
2022/05/27 17:54:00;;;;;;;;;;;;;;;15.91;55.93;99869.97;10374279;28;20027;-68
2022/05/27 17:59:04;;;;;;;;;;;;;;;15.76;56.28;99877.59;10374256;28;19926;-68
2022/05/27 18:04:07;;;;;;;;;;;;;;;15.55;56.90;99889.72;10373587;28;20354;-68
2022/05/27 18:09:11;;;;;;;;;;;;;;;15.61;56.94;99933.13;10373360;28;19936;-65
2022/05/27 18:14:16;;;;;;;;;;;;;;;15.44;58.10;99938.97;10373397;28;20379;-64
2022/05/27 18:19:19;;;;;;;;;;;;;;;14.89;61.69;99929.56;10373403;28;19926;-67
2022/05/27 18:24:22;;;;;;;;;;;;;;;14.59;62.75;99917.56;10373434;28;20346;-70
2022/05/27 18:29:28;;;;;;;;;;;;;;;14.39;63.10;99909.50;10373239;28;20258;-71
2022/05/27 18:34:31;;;;;;;;;;;;;;;14.33;62.91;99908.88;10372695;28;20281;-67
2022/05/27 18:39:34;;;;;;;;;;;;;;;14.28;62.75;99901.19;10373118;28;19926;-71
2022/05/27 18:44:38;;;;;;;;;;;;;;;14.25;60.83;99903.88;10372953;28;20435;-65
2022/05/27 18:49:41;;;;;;;;;;;;;;;14.22;60.48;99900.50;10372799;28;19925;-67
2022/05/27 18:54:44;;;;;;;;;;;;;;;14.12;60.47;99912.13;10372610;28;20258;-68
2022/05/27 18:59:49;;;;;;;;;;;;;;;14.11;59.24;99906.06;10373935;28;19936;-66
2022/05/27 19:04:52;;;;;;;;;;;;;;;14.07;58.97;99919.25;10373566;28;19943;-67
2022/05/27 19:09:55;;;;;;;;;;;;;;;13.93;58.83;99929.28;10373332;28;20376;-67
2022/05/27 19:15:00;;;;;;;;;;;;;;;13.83;59.39;99921.72;10373046;28;19941;-69
2022/05/27 19:25:24;;;;;;;;;;;;;;;13.61;60.56;99925.88;10371639;28;19925;-68
2022/05/27 19:30:29;;;;;;;;;;;;;;;13.55;61.10;99922.56;10369475;28;20338;-68
2022/05/27 19:35:32;;;;;;;;;;;;;;;13.46;61.99;99920.25;10369247;28;19926;-68
2022/05/27 19:40:35;;;;;;;;;;;;;;;13.61;61.62;99918.06;10369510;28;20500;-67
2022/05/27 19:45:39;;;;;;;;;;;;;;;13.47;62.82;99909.78;10369002;28;19929;-67
2022/05/27 19:50:44;;;;;;;;;;;;;;;13.28;63.55;99926.84;10369370;28;19947;-69
2022/05/27 19:55:47;;;;;;;;;;;;;;;13.26;64.04;99918.19;10368951;28;20016;-68
2022/05/27 20:00:51;;;;;;;;;;;;;;;13.25;63.74;99921.72;10368880;28;19932;-67
2022/05/27 20:05:56;;;;;;;;;;;;;;;13.22;64.06;99927.00;10368246;28;20308;-70
2022/05/27 20:11:05;;;;;;;;;;;;;;;13.26;64.60;99936.44;10368624;28;19938;-68
2022/05/27 20:16:18;;;;;;;;;;;;;;;13.31;64.63;99944.13;10368807;28;19974;-66
2022/05/27 20:21:22;;;;;;;;;;;;;;;13.08;65.28;99942.16;10368384;28;20354;-67
2022/05/27 20:26:25;;;;;;;;;;;;;;;13.04;65.54;99943.16;10022288;28;10000567;-70
2022/05/27 20:31:30;;;;;;;;;;;;;;;13.08;65.98;99949.97;10368356;28;19994;-69
2022/05/27 20:41:55;;;;;;;;;;;;;;;12.91;67.49;99927.84;10368152;28;19934;-68
2022/05/27 20:47:00;;;;;;;;;;;;;;;12.97;67.63;99927.66;10367933;28;19971;-69
2022/05/27 20:52:04;;;;;;;;;;;;;;;12.82;68.93;99930.69;10367675;28;19976;-69
2022/05/27 20:57:08;;;;;;;;;;;;;;;12.75;69.87;99928.22;10371637;28;19925;-67
2022/05/27 21:02:12;;;;;;;;;;;;;;;12.90;69.53;99926.13;10374098;28;19926;-70
2022/05/27 21:07:18;;;;;;;;;;;;;;;12.74;69.55;99903.09;10374317;28;19975;-70
2022/05/27 21:12:21;;;;;;;;;;;;;;;12.45;70.47;99913.41;10374242;28;19975;-68
2022/05/27 21:17:26;;;;;;;;;;;;;;;12.59;70.25;99921.72;10373865;28;20262;-69
2022/05/27 21:22:29;;;;;;;;;;;;;;;12.64;69.87;99919.84;10374069;28;19954;-67
2022/05/27 21:27:32;;;;;;;;;;;;;;;12.45;69.80;99928.16;10400752;28;20012;-64
2022/05/27 21:32:36;;;;;;;;;;;;;;;12.32;70.45;99937.16;10414313;28;19929;-67
2022/05/27 21:37:40;;;;;;;;;;;;;;;12.61;68.58;99940.75;10414435;28;20015;-65
2022/05/27 21:42:43;;;;;;;;;;;;;;;12.41;69.62;99943.00;10413937;28;20536;-64
2022/05/27 21:47:48;;;;;;;;;;;;;;;12.46;69.65;99943.72;10414053;27;19925;-62
2022/05/27 21:52:51;;;;;;;;;;;;;;;12.37;69.81;99948.31;10413782;28;19929;-63
2022/05/27 21:57:54;;;;;;;;;;;;;;;12.33;69.49;99946.66;10413629;28;20047;-64
2022/05/27 22:02:58;;;;;;;;;;;;;;;12.33;68.93;99939.72;10413534;28;20020;-64
2022/05/27 22:08:02;;;;;;;;;;;;;;;12.24;68.76;99952.94;10412676;28;19937;-64
2022/05/27 22:13:05;;;;;;;;;;;;;;;12.13;69.83;99959.28;10413185;28;19925;-64
2022/05/27 22:18:09;;;;;;;;;;;;;;;12.05;70.48;99949.06;10413359;28;19929;-68
2022/05/27 22:23:12;;;;;;;;;;;;;;;11.93;70.76;99954.53;10413141;28;19925;-68
2022/05/27 22:28:16;;;;;;;;;;;;;;;11.95;71.08;99944.09;10379738;28;19925;-68
2022/05/27 22:33:20;;;;;;;;;;;;;;;12.01;71.12;99936.16;10371747;28;19958;-65
2022/05/27 22:38:23;;;;;;;;;;;;;;;12.12;70.40;99936.75;10373958;28;19936;-70
2022/05/27 22:43:27;;;;;;;;;;;;;;;12.03;70.63;99937.81;10374466;28;19926;-66
2022/05/27 22:48:32;;;;;;;;;;;;;;;11.84;71.40;99931.31;10374535;28;19990;-66
2022/05/27 22:53:35;;;;;;;;;;;;;;;11.86;71.24;99928.69;10374171;28;19926;-64
2022/05/27 22:58:39;;;;;;;;;;;;;;;11.89;71.12;99933.84;10373911;28;20388;-67
2022/05/27 23:03:44;;;;;;;;;;;;;;;11.84;71.05;99943.50;10373633;28;19930;-68
2022/05/27 23:08:50;;;;;;;;;;;;;;;11.80;70.82;99926.22;10373911;28;19962;-64
2022/05/27 23:19:14;;;;;;;;;;;;;;;11.73;71.77;99917.72;10372318;28;19925;-67
2022/05/27 23:24:17;;;;;;;;;;;;;;;11.44;72.90;99923.47;10373478;28;20362;-67
2022/05/27 23:29:21;;;;;;;;;;;;;;;11.49;73.40;99924.25;10373155;28;19936;-67
2022/05/27 23:34:26;;;;;;;;;;;;;;;11.32;73.81;99922.91;10372843;28;19926;-66
2022/05/27 23:39:29;;;;;;;;;;;;;;;11.23;74.53;99921.31;10372809;28;19936;-66
2022/05/27 23:44:32;;;;;;;;;;;;;;;11.09;75.20;99915.56;10372795;28;20028;-64
2022/05/27 23:49:37;;;;;;;;;;;;;;;11.30;74.14;99917.72;10372616;28;19947;-66
2022/05/27 23:54:40;;;;;;;;;;;;;;;11.11;74.55;99913.75;10372542;28;19925;-65
2022/05/27 23:59:43;;;;;;;;;;;;;;;11.03;75.27;99894.88;10372065;28;19926;-63
